createdAt,value
2023-04-15T00:04:36.894Z,990.59
2023-04-15T00:10:21.257Z,990.64
2023-04-15T00:16:05.573Z,990.52
2023-04-15T00:21:49.565Z,990.48
2023-04-15T00:27:33.527Z,990.52
2023-04-15T00:33:17.877Z,990.54
2023-04-15T00:39:02.287Z,990.49
2023-04-15T00:44:46.460Z,990.42
2023-04-15T00:50:30.524Z,990.44
2023-04-15T00:56:14.838Z,990.41
2023-04-15T01:02:00.371Z,990.34
2023-04-15T01:07:45.599Z,990.36
2023-04-15T01:13:30.532Z,990.34
2023-04-15T01:19:16.058Z,990.36
2023-04-15T01:25:02.770Z,990.35
2023-04-15T01:30:46.724Z,990.39
2023-04-15T01:36:30.736Z,990.41
2023-04-15T01:42:14.692Z,990.3
2023-04-15T01:47:58.928Z,990.27
2023-04-15T01:53:43.127Z,990.35
2023-04-15T01:59:26.947Z,990.37
2023-04-15T02:05:11.224Z,990.34
2023-04-15T02:10:55.286Z,990.28
2023-04-15T02:16:39.498Z,990.24
2023-04-15T02:22:23.960Z,990.22
2023-04-15T02:28:08.040Z,990.22
2023-04-15T02:33:52.299Z,990.26
2023-04-15T02:39:36.545Z,990.27
2023-04-15T02:45:20.781Z,990.23
2023-04-15T02:51:18.168Z,990.4
2023-04-15T02:57:02.351Z,990.45
2023-04-15T03:02:52.612Z,990.36
2023-04-15T03:08:37.296Z,990.43
2023-04-15T03:14:21.580Z,990.47
2023-04-15T03:20:07.227Z,990.58
2023-04-15T03:25:51.096Z,990.62
2023-04-15T03:31:35.282Z,990.69
2023-04-15T03:37:19.494Z,990.8
2023-04-15T03:43:03.594Z,990.84
2023-04-15T03:48:47.973Z,990.8
2023-04-15T03:54:32.016Z,990.94
2023-04-15T04:00:16.618Z,990.94
2023-04-15T04:06:00.710Z,991.03
2023-04-15T04:11:44.837Z,991.06
2023-04-15T04:17:29.038Z,991.19
2023-04-15T04:23:13.278Z,991.26
2023-04-15T04:28:57.417Z,991.3
2023-04-15T04:34:42.201Z,991.39
2023-04-15T04:40:26.332Z,991.49
2023-04-15T04:46:10.602Z,991.5
2023-04-15T04:51:55.142Z,991.6
2023-04-15T04:57:39.306Z,991.56
2023-04-15T05:03:23.764Z,991.62
2023-04-15T05:09:08.181Z,991.69
2023-04-15T05:14:52.270Z,991.79
2023-04-15T05:20:36.402Z,991.92
2023-04-15T05:26:21.438Z,991.99
2023-04-15T05:32:05.706Z,992.08
2023-04-15T05:37:49.826Z,992.16
2023-04-15T05:43:33.861Z,992.24
2023-04-15T05:49:17.974Z,992.32
2023-04-15T05:55:02.101Z,992.36
2023-04-15T06:00:46.168Z,992.45
2023-04-15T06:06:30.143Z,992.6
2023-04-15T06:12:14.037Z,992.68
2023-04-15T06:17:57.987Z,992.72
2023-04-15T06:23:42.162Z,992.85
2023-04-15T06:29:26.141Z,992.92
2023-04-15T06:35:10.691Z,992.93
2023-04-15T06:40:54.710Z,992.99
2023-04-15T06:46:38.682Z,993.08
2023-04-15T06:52:22.670Z,993.08
2023-04-15T06:58:06.646Z,993.1
2023-04-15T07:03:50.780Z,993.09
2023-04-15T07:09:35.106Z,993.13
2023-04-15T07:15:19.316Z,993.17
2023-04-15T07:21:04.799Z,993.22
2023-04-15T07:26:48.814Z,993.37
2023-04-15T07:32:32.881Z,993.59
2023-04-15T07:38:16.919Z,993.79
2023-04-15T07:44:01.074Z,993.81
2023-04-15T07:49:45.015Z,993.93
2023-04-15T07:55:29.676Z,993.92
2023-04-15T08:01:13.976Z,993.92
2023-04-15T08:06:57.862Z,994.05
2023-04-15T08:12:41.759Z,994.2
2023-04-15T08:18:25.767Z,994.25
2023-04-15T08:24:09.947Z,994.39
2023-04-15T08:29:53.870Z,994.54
2023-04-15T08:35:37.993Z,994.56
2023-04-15T08:41:24.785Z,994.63
2023-04-15T08:47:09.622Z,994.74
2023-04-15T08:52:54.391Z,994.78
2023-04-15T08:58:38.785Z,994.88
2023-04-15T09:04:24.911Z,994.97
2023-04-15T09:10:10.136Z,995.09
2023-04-15T09:15:54.353Z,995.2
2023-04-15T09:21:38.560Z,995.33
2023-04-15T09:27:22.302Z,995.55
2023-04-15T09:33:06.474Z,995.64
2023-04-15T09:39:00.957Z,995.72
2023-04-15T09:44:45.449Z,995.8
2023-04-15T09:50:31.304Z,995.9
2023-04-15T09:56:15.770Z,995.97
2023-04-15T10:02:00.872Z,996.08
2023-04-15T10:07:45.484Z,996.19
2023-04-15T10:13:31.346Z,996.22
2023-04-15T10:19:16.793Z,996.32
2023-04-15T10:25:01.024Z,996.37
2023-04-15T10:30:45.197Z,996.43
2023-04-15T10:36:29.666Z,996.56
2023-04-15T10:42:14.879Z,996.62
2023-04-15T10:48:04.572Z,996.68
2023-04-15T10:53:49.002Z,996.77
2023-04-15T10:59:34.607Z,996.89
2023-04-15T11:05:19.030Z,996.9
2023-04-15T11:11:02.883Z,996.97
2023-04-15T11:16:47.988Z,997.05
2023-04-15T11:22:32.096Z,997.05
2023-04-15T11:28:15.942Z,997.18
2023-04-15T11:34:00.986Z,997.27
2023-04-15T11:39:45.099Z,997.28
2023-04-15T11:45:29.391Z,997.29
2023-04-15T11:51:14.317Z,997.39
2023-04-15T11:56:58.449Z,997.39
2023-04-15T12:02:42.937Z,997.56
2023-04-15T12:08:27.368Z,997.57
2023-04-15T12:14:13.016Z,997.55
2023-04-15T12:19:57.388Z,997.68
2023-04-15T12:25:41.614Z,997.85
2023-04-15T12:31:25.934Z,997.99
2023-04-15T12:37:10.899Z,998.11
2023-04-15T12:42:54.877Z,998.22
2023-04-15T12:48:38.850Z,998.31
2023-04-15T12:54:22.778Z,998.34
2023-04-15T13:00:07.425Z,998.36
2023-04-15T13:05:51.511Z,998.5
2023-04-15T13:11:36.008Z,998.46
2023-04-15T13:17:20.077Z,998.59
2023-04-15T13:23:04.220Z,998.64
2023-04-15T13:28:48.290Z,998.73
2023-04-15T13:34:32.426Z,998.83
2023-04-15T13:40:16.562Z,998.82
2023-04-15T13:46:00.784Z,998.86
2023-04-15T13:51:45.134Z,999
2023-04-15T13:57:30.353Z,999.14
2023-04-15T14:03:14.806Z,999.19
2023-04-15T14:08:59.812Z,999.17
2023-04-15T14:14:43.997Z,999.26
2023-04-15T14:20:28.201Z,999.34
2023-04-15T14:26:12.239Z,999.44
2023-04-15T14:32:03.979Z,999.49
2023-04-15T14:37:57.820Z,999.54
2023-04-15T14:43:42.222Z,999.57
2023-04-15T14:49:26.400Z,999.76
2023-04-15T14:55:11.849Z,999.73
2023-04-15T15:00:56.367Z,999.78
2023-04-15T15:06:40.645Z,999.83
2023-04-15T15:12:24.709Z,999.95
2023-04-15T15:18:09.975Z,999.98
2023-04-15T15:23:53.964Z,1000.01
2023-04-15T15:29:38.347Z,1000.17
2023-04-15T15:35:22.417Z,1000.25
2023-04-15T15:41:06.517Z,1000.41
2023-04-15T15:46:51.102Z,1000.5
2023-04-15T15:52:35.191Z,1000.49
2023-04-15T15:58:18.959Z,1000.57
2023-04-15T16:04:03.334Z,1000.68
2023-04-15T16:09:47.918Z,1000.74
2023-04-15T16:15:31.844Z,1000.87
2023-04-15T16:21:16.133Z,1000.91
2023-04-15T16:26:59.954Z,1001.07
2023-04-15T16:32:44.265Z,1001.16
2023-04-15T16:38:28.553Z,1001.23
2023-04-15T16:44:12.620Z,1001.35
2023-04-15T16:49:56.623Z,1001.36
2023-04-15T16:55:40.568Z,1001.47
2023-04-15T17:01:25.316Z,1001.51
2023-04-15T17:07:09.873Z,1001.64
2023-04-15T17:12:53.865Z,1001.6
2023-04-15T17:18:39.912Z,1001.74
2023-04-15T17:24:23.816Z,1001.86
2023-04-15T17:30:08.666Z,1001.91
2023-04-15T17:35:52.724Z,1002
2023-04-15T17:41:37.827Z,1002.05
2023-04-15T17:47:22.001Z,1002.06
2023-04-15T17:53:06.141Z,1002.09
2023-04-15T17:58:50.394Z,1002.16
2023-04-15T18:04:34.932Z,1002.21
2023-04-15T18:10:19.280Z,1002.25
2023-04-15T18:16:03.507Z,1002.39
2023-04-15T18:21:47.455Z,1002.45
2023-04-15T18:27:31.900Z,1002.53
2023-04-15T18:33:15.971Z,1002.64
2023-04-15T18:38:59.762Z,1002.75
2023-04-15T18:44:43.991Z,1002.94
2023-04-15T18:50:29.225Z,1003.04
2023-04-15T18:56:13.188Z,1003.14
2023-04-15T19:01:57.187Z,1003.26
2023-04-15T19:07:41.442Z,1003.35
2023-04-15T19:13:25.543Z,1003.42
2023-04-15T19:19:10.496Z,1003.61
2023-04-15T19:24:55.181Z,1003.73
2023-04-15T19:30:39.375Z,1003.84
2023-04-15T19:36:23.520Z,1003.85
2023-04-15T19:42:08.590Z,1003.93
2023-04-15T19:47:52.820Z,1003.98
2023-04-15T19:53:36.897Z,1004.08
2023-04-15T19:59:20.856Z,1004.16
2023-04-15T20:05:05.082Z,1004.23
2023-04-15T20:10:49.086Z,1004.32
2023-04-15T20:16:35.525Z,1004.23
2023-04-15T20:22:19.507Z,1004.36
2023-04-15T20:28:03.604Z,1004.4
2023-04-15T20:33:47.526Z,1004.38
2023-04-15T20:39:31.782Z,1004.43
2023-04-15T20:45:15.893Z,1004.51
2023-04-15T20:50:59.913Z,1004.63
2023-04-15T20:56:43.792Z,1004.67
2023-04-15T21:02:29.046Z,1004.69
2023-04-15T21:08:13.693Z,1004.75
2023-04-15T21:13:57.794Z,1004.79
2023-04-15T21:19:41.844Z,1004.88
2023-04-15T21:25:25.794Z,1004.88
2023-04-15T21:31:09.814Z,1004.94
2023-04-15T21:36:53.789Z,1005.01
2023-04-15T21:42:37.930Z,1005.13
2023-04-15T21:48:22.179Z,1005.21
2023-04-15T21:54:06.363Z,1005.27
2023-04-15T21:59:50.369Z,1005.32
2023-04-15T22:05:34.323Z,1005.46
2023-04-15T22:11:23.380Z,1005.48
2023-04-15T22:17:08.470Z,1005.51
2023-04-15T22:22:55.593Z,1005.54
2023-04-15T22:28:39.270Z,1005.57
2023-04-15T22:34:23.410Z,1005.67
2023-04-15T22:40:07.958Z,1005.78
2023-04-15T22:45:53.986Z,1005.8
2023-04-15T22:51:38.024Z,1005.92
2023-04-15T22:57:22.210Z,1005.99
2023-04-15T23:03:08.531Z,1006.06
2023-04-15T23:08:53.246Z,1006.15
2023-04-15T23:14:38.193Z,1006.22
2023-04-15T23:20:22.169Z,1006.21
2023-04-15T23:26:06.150Z,1006.16
2023-04-15T23:31:50.243Z,1006.22
2023-04-15T23:37:34.704Z,1006.32
2023-04-15T23:43:19.004Z,1006.24
2023-04-15T23:49:03.167Z,1006.29
2023-04-15T23:54:47.223Z,1006.38
